| time (UTC) | temp F | wind direction | speed MPH | gust MPH | rain 1hr in | rain 24hr in | rain mn in | humidity % | barometer mb |
| 20260505152003 | 56 | 206 | 1.0 | 3.0 | 0.00 | 0.34 | 0.27 | 83 | 1022.2 |
| 20260505151503 | 56 | 198 | 1.0 | 3.0 | 0.00 | 0.34 | 0.27 | 83 | 1022.2 |
| 20260505151214 | 56 | 167 | 1.0 | 3.0 | 0.00 | 0.34 | 0.27 | 83 | 1021.9 |
| 20260505150713 | 56 | 155 | 1.0 | 3.0 | 0.00 | 0.34 | 0.27 | 84 | 1022.4 |
| 20260505140503 | 55 | 251 | 1.0 | 4.0 | 0.00 | 0.34 | 0.27 | 88 | 1022.8 |
| 20260505140213 | 55 | 163 | 1.0 | 4.0 | 0.00 | 0.34 | 0.27 | 88 | 1022.8 |
| 20260505125003 | 55 | 195 | 1.0 | 4.0 | 0.00 | 0.34 | 0.27 | 83 | 1023.3 |
| 20260505124503 | 55 | 282 | 1.0 | 3.0 | 0.00 | 0.34 | 0.27 | 84 | 1023.3 |
| 20260505124003 | 56 | 301 | 0.0 | 3.0 | 0.00 | 0.34 | 0.27 | 83 | 1023.2 |
| 20260505123503 | 56 | 165 | 0.0 | 2.0 | 0.00 | 0.34 | 0.27 | 83 | 1023.1 |
| 20260505123003 | 55 | 168 | 1.0 | 2.0 | 0.00 | 0.34 | 0.27 | 85 | 1023.2 |
| 20260505122503 | 55 | 176 | 1.0 | 3.0 | 0.00 | 0.34 | 0.27 | 85 | 1023.2 |
| 20260505122213 | 55 | 188 | 1.0 | 3.0 | 0.00 | 0.34 | 0.27 | 85 | 1023.2 |
| 20260505121714 | 55 | 185 | 1.0 | 3.0 | 0.00 | 0.34 | 0.27 | 84 | 1023.2 |
| 20260505121003 | 55 | 162 | 1.0 | 4.0 | 0.00 | 0.34 | 0.27 | 85 | 1023.2 |
| 20260505120504 | 55 | 161 | 1.0 | 4.0 | 0.00 | 0.34 | 0.27 | 87 | 1023.1 |
| 20260505120004 | 54 | 175 | 1.0 | 4.0 | 0.00 | 0.34 | 0.27 | 87 | 1023.4 |
| 20260505115503 | 54 | 229 | 2.0 | 6.0 | 0.00 | 0.34 | 0.27 | 88 | 1023.6 |
| 20260505115003 | 53 | 249 | 2.0 | 6.0 | 0.00 | 0.34 | 0.27 | 89 | 1023.6 |
| 20260505114503 | 53 | 214 | 2.0 | 6.0 | 0.00 | 0.34 | 0.27 | 90 | 1023.9 |
| 20260505114003 | 53 | 202 | 2.0 | 6.0 | 0.00 | 0.34 | 0.27 | 90 | 1023.8 |
| 20260505113713 | 53 | 216 | 2.0 | 4.0 | 0.00 | 0.34 | 0.27 | 91 | 1023.9 |
| 20260505113003 | 52 | 214 | 2.0 | 4.0 | 0.00 | 0.34 | 0.27 | 91 | 1024.2 |
| 20260505112713 | 52 | 186 | 2.0 | 4.0 | 0.00 | 0.34 | 0.27 | 92 | 1024.2 |
| 20260505112214 | 52 | 185 | 2.0 | 4.0 | 0.00 | 0.34 | 0.27 | 92 | 1024.1 |
| 20260505111503 | 52 | 204 | 2.0 | 4.0 | 0.00 | 0.34 | 0.27 | 92 | 1024.0 |
| 20260505111003 | 52 | 219 | 1.0 | 3.0 | 0.00 | 0.34 | 0.27 | 91 | 1024.1 |
| 20260505110503 | 52 | 219 | 1.0 | 4.0 | 0.00 | 0.34 | 0.27 | 90 | 1024.3 |
| 20260505102214 | 53 | 142 | 0.0 | 1.0 | 0.00 | 0.36 | 0.27 | 84 | 1024.1 |
| 20260505101503 | 53 | 228 | 0.0 | 1.0 | 0.00 | 0.36 | 0.27 | 84 | 1024.3 |
| 20260505101003 | 52 | 178 | 0.0 | 1.0 | 0.00 | 0.36 | 0.27 | 84 | 1024.5 |
| 20260505100503 | 53 | 129 | 0.0 | 1.0 | 0.00 | 0.36 | 0.27 | 85 | 1024.4 |
| 20260505100003 | 52 | 138 | 0.0 | 1.0 | 0.00 | 0.36 | 0.27 | 85 | 1024.1 |
| 20260505095713 | 52 | 125 | 0.0 | 1.0 | 0.00 | 0.36 | 0.27 | 84 | 1024.3 |
| 20260505095003 | 52 | 0 | 0.0 | 0.0 | 0.00 | 0.36 | 0.27 | 86 | 1024.1 |
| 20260505094503 | 52 | 75 | 0.0 | 1.0 | 0.00 | 0.36 | 0.27 | 87 | 1024.3 |
| 20260505094214 | 52 | 70 | 0.0 | 1.0 | 0.00 | 0.36 | 0.27 | 87 | 1024.6 |
| 20260505093503 | 52 | 71 | 0.0 | 3.0 | 0.00 | 0.36 | 0.27 | 88 | 1024.3 |
| 20260505093003 | 52 | 122 | 0.0 | 1.0 | 0.00 | 0.36 | 0.27 | 87 | 1024.4 |
| 20260505092503 | 52 | 101 | 0.0 | 1.0 | 0.00 | 0.36 | 0.27 | 87 | 1024.4 |
| 20260505092003 | 52 | 110 | 0.0 | 1.0 | 0.00 | 0.36 | 0.27 | 87 | 1024.1 |
| 20260505091503 | 51 | 153 | 0.0 | 1.0 | 0.00 | 0.36 | 0.27 | 87 | 1024.4 |
| 20260505091214 | 51 | 159 | 0.0 | 1.0 | 0.00 | 0.36 | 0.27 | 87 | 1024.5 |
| 20260505090712 | 51 | 213 | 0.0 | 1.0 | 0.00 | 0.36 | 0.27 | 89 | 1024.3 |
| 20260505090003 | 51 | 128 | 0.0 | 1.0 | 0.00 | 0.36 | 0.27 | 88 | 1024.5 |
| 20260505085503 | 51 | 183 | 0.0 | 1.0 | 0.00 | 0.36 | 0.27 | 91 | 1024.3 |
| 20260505085003 | 51 | 200 | 0.0 | 2.0 | 0.00 | 0.36 | 0.27 | 91 | 1024.5 |
| 20260505084503 | 51 | 223 | 0.0 | 2.0 | 0.00 | 0.36 | 0.27 | 91 | 1024.5 |
| 20260505084003 | 51 | 181 | 1.0 | 2.0 | 0.00 | 0.36 | 0.27 | 91 | 1024.4 |
| 20260505083503 | 50 | 170 | 1.0 | 2.0 | 0.00 | 0.36 | 0.27 | 92 | 1024.3 |
| 20260505083003 | 51 | 239 | 0.0 | 2.0 | 0.00 | 0.36 | 0.27 | 91 | 1024.3 |
| 20260505082714 | 51 | 254 | 0.0 | 2.0 | 0.00 | 0.36 | 0.27 | 91 | 1024.1 |
| 20260505082003 | 51 | 0 | 0.0 | 0.0 | 0.00 | 0.36 | 0.27 | 90 | 1024.3 |
| 20260505081503 | 51 | 301 | 0.0 | 1.0 | 0.00 | 0.36 | 0.27 | 90 | 1024.0 |
| 20260505081003 | 51 | 299 | 0.0 | 1.0 | 0.00 | 0.36 | 0.27 | 89 | 1024.4 |
| 20260505080503 | 50 | 299 | 1.0 | 2.0 | 0.00 | 0.36 | 0.27 | 89 | 1024.1 |
| 20260505080004 | 50 | 296 | 1.0 | 3.0 | 0.00 | 0.36 | 0.27 | 90 | 1024.1 |
| 20260505075503 | 50 | 295 | 1.0 | 3.0 | 0.00 | 0.36 | 0.27 | 91 | 1024.1 |
| 20260505075213 | 50 | 300 | 1.0 | 3.0 | 0.00 | 0.36 | 0.27 | 90 | 1024.0 |
| 20260505074503 | 51 | 322 | 0.0 | 1.0 | 0.00 | 0.36 | 0.27 | 90 | 1024.0 |
| 20260505074003 | 51 | 327 | 0.0 | 1.0 | 0.00 | 0.36 | 0.27 | 90 | 1024.1 |
| 20260505073503 | 51 | 0 | 0.0 | 0.0 | 0.00 | 0.36 | 0.27 | 90 | 1024.1 |
| 20260505073003 | 50 | 296 | 0.0 | 1.0 | 0.00 | 0.36 | 0.27 | 92 | 1024.1 |
| 20260505072503 | 50 | 299 | 0.0 | 2.0 | 0.00 | 0.36 | 0.27 | 92 | 1024.4 |
| 20260505072003 | 50 | 300 | 0.0 | 2.0 | 0.00 | 0.36 | 0.27 | 91 | 1024.1 |
| 20260505071503 | 50 | 0 | 0.0 | 0.0 | 0.00 | 0.36 | 0.27 | 91 | 1024.0 |
| 20260505071213 | 50 | 0 | 0.0 | 0.0 | 0.00 | 0.36 | 0.27 | 90 | 1024.1 |
| 20260505070503 | 50 | 295 | 0.0 | 1.0 | 0.00 | 0.36 | 0.27 | 91 | 1024.2 |
| 20260505070003 | 50 | 290 | 0.0 | 1.0 | 0.00 | 0.36 | 0.27 | 92 | 1024.0 |
| 20260505065503 | 50 | 0 | 0.0 | 0.0 | 0.00 | 0.36 | 0.27 | 90 | 1024.1 |
| 20260505065003 | 50 | 0 | 0.0 | 0.0 | 0.00 | 0.36 | 0.27 | 90 | 1024.1 |
| 20260505064503 | 49 | 299 | 0.0 | 2.0 | 0.00 | 0.36 | 0.27 | 91 | 1024.1 |
| 20260505064003 | 49 | 292 | 1.0 | 2.0 | 0.00 | 0.36 | 0.27 | 92 | 1024.2 |
| 20260505063503 | 49 | 287 | 1.0 | 2.0 | 0.00 | 0.36 | 0.27 | 93 | 1024.3 |
| 20260505063213 | 49 | 284 | 0.0 | 1.0 | 0.00 | 0.36 | 0.27 | 93 | 1024.0 |
| 20260505062503 | 49 | 281 | 0.0 | 1.0 | 0.00 | 0.36 | 0.27 | 93 | 1024.1 |
| 20260505062003 | 49 | 294 | 0.0 | 1.0 | 0.00 | 0.36 | 0.27 | 93 | 1024.1 |
| 20260505061503 | 49 | 296 | 0.0 | 1.0 | 0.00 | 0.36 | 0.27 | 93 | 1024.1 |
| 20260505061003 | 49 | 262 | 0.0 | 1.0 | 0.00 | 0.36 | 0.27 | 94 | 1024.3 |
| 20260505060503 | 49 | 165 | 0.0 | 1.0 | 0.00 | 0.36 | 0.27 | 94 | 1024.1 |
| 20260505060003 | 49 | 134 | 0.0 | 1.0 | 0.00 | 0.36 | 0.27 | 94 | 1024.4 |
| 20260505055503 | 49 | 299 | 0.0 | 1.0 | 0.00 | 0.36 | 0.27 | 94 | 1024.5 |
| 20260505055214 | 49 | 308 | 0.0 | 1.0 | 0.00 | 0.36 | 0.27 | 94 | 1024.4 |
| 20260505054503 | 49 | 65 | 0.0 | 1.0 | 0.00 | 0.36 | 0.27 | 93 | 1024.0 |
| 20260505054003 | 49 | 306 | 0.0 | 1.0 | 0.00 | 0.36 | 0.27 | 93 | 1024.0 |
| 20260505053503 | 49 | 306 | 0.0 | 1.0 | 0.00 | 0.36 | 0.27 | 93 | 1023.9 |
| 20260505053003 | 49 | 0 | 0.0 | 0.0 | 0.00 | 0.36 | 0.27 | 92 | 1023.8 |
| 20260505052503 | 49 | 71 | 0.0 | 2.0 | 0.00 | 0.36 | 0.27 | 90 | 1024.1 |
| 20260505052003 | 49 | 66 | 0.0 | 2.0 | 0.00 | 0.36 | 0.27 | 91 | 1024.2 |
| 20260505051503 | 49 | 63 | 0.0 | 3.0 | 0.01 | 0.36 | 0.27 | 92 | 1024.0 |
| 20260505051003 | 49 | 52 | 0.0 | 3.0 | 0.01 | 0.36 | 0.27 | 91 | 1024.0 |
| 20260505050503 | 49 | 58 | 1.0 | 2.0 | 0.02 | 0.36 | 0.27 | 92 | 1024.0 |
| 20260505041713 | 49 | 0 | 0.0 | 0.0 | 0.10 | 0.36 | 0.27 | 97 | 1024.5 |
| 20260505041003 | 49 | 0 | 0.0 | 0.0 | 0.10 | 0.35 | 0.26 | 97 | 1024.7 |
| 20260505040503 | 49 | 0 | 0.0 | 0.0 | 0.10 | 0.34 | 0.25 | 97 | 1024.7 |
| 20260505040004 | 49 | 0 | 0.0 | 0.0 | 0.10 | 0.33 | 0.24 | 97 | 1024.9 |
| 20260505035503 | 49 | 67 | 0.0 | 1.0 | 0.09 | 0.32 | 0.23 | 97 | 1024.9 |
| 20260505035003 | 49 | 67 | 0.0 | 1.0 | 0.09 | 0.31 | 0.22 | 97 | 1024.9 |
| 20260505034503 | 50 | 0 | 0.0 | 0.0 | 0.09 | 0.29 | 0.20 | 97 | 1024.9 |
| 20260505034003 | 50 | 0 | 0.0 | 0.0 | 0.09 | 0.28 | 0.19 | 97 | 1024.8 |
| 20260505033712 | 50 | 0 | 0.0 | 0.0 | 0.10 | 0.28 | 0.19 | 97 | 1025.1 |
| 20260505033003 | 49 | 301 | 0.0 | 1.0 | 0.10 | 0.27 | 0.18 | 97 | 1024.9 |
| 20260505032503 | 49 | 301 | 0.0 | 1.0 | 0.11 | 0.27 | 0.18 | 97 | 1025.0 |
| 20260505032213 | 50 | 301 | 0.0 | 1.0 | 0.12 | 0.27 | 0.18 | 97 | 1025.2 |
| 20260505031503 | 50 | 0 | 0.0 | 0.0 | 0.13 | 0.26 | 0.17 | 97 | 1025.1 |
| 20260505031003 | 50 | 0 | 0.0 | 0.0 | 0.13 | 0.25 | 0.16 | 97 | 1025.2 |
| 20260505030714 | 50 | 0 | 0.0 | 0.0 | 0.12 | 0.24 | 0.15 | 97 | 1025.2 |
| 20260505030003 | 50 | 0 | 0.0 | 0.0 | 0.12 | 0.23 | 0.14 | 97 | 1025.4 |
| 20260505025503 | 50 | 0 | 0.0 | 0.0 | 0.12 | 0.23 | 0.14 | 97 | 1025.3 |
| 20260505025003 | 50 | 0 | 0.0 | 0.0 | 0.12 | 0.22 | 0.13 | 97 | 1025.4 |
| 20260505024503 | 50 | 0 | 0.0 | 0.0 | 0.10 | 0.20 | 0.11 | 97 | 1025.5 |
| 20260505024003 | 50 | 0 | 0.0 | 0.0 | 0.09 | 0.19 | 0.10 | 97 | 1025.6 |
| 20260505023503 | 49 | 0 | 0.0 | 0.0 | 0.08 | 0.18 | 0.09 | 97 | 1025.4 |
| 20260505023213 | 49 | 0 | 0.0 | 0.0 | 0.07 | 0.17 | 0.08 | 97 | 1025.6 |
| 20260505022503 | 49 | 0 | 0.0 | 0.0 | 0.06 | 0.16 | 0.07 | 96 | 1025.6 |
| 20260505022003 | 49 | 0 | 0.0 | 0.0 | 0.05 | 0.15 | 0.06 | 96 | 1025.7 |
| 20260505021503 | 49 | 302 | 0.0 | 1.0 | 0.03 | 0.13 | 0.04 | 96 | 1025.5 |
| 20260505021003 | 50 | 302 | 0.0 | 1.0 | 0.02 | 0.12 | 0.03 | 96 | 1025.5 |
| 20260505020503 | 50 | 0 | 0.0 | 0.0 | 0.02 | 0.12 | 0.03 | 96 | 1025.5 |
| 20260505020004 | 50 | 0 | 0.0 | 0.0 | 0.01 | 0.11 | 0.02 | 96 | 1025.5 |
| 20260505015503 | 50 | 0 | 0.0 | 0.0 | 0.01 | 0.11 | 0.02 | 96 | 1025.5 |
| 20260505015003 | 50 | 0 | 0.0 | 0.0 | 0.00 | 0.10 | 0.01 | 96 | 1025.2 |
| 20260505014503 | 50 | 0 | 0.0 | 0.0 | 0.00 | 0.10 | 0.01 | 96 | 1025.4 |
| 20260505014213 | 50 | 0 | 0.0 | 0.0 | 0.00 | 0.10 | 0.01 | 96 | 1025.5 |
| 20260505013503 | 50 | 0 | 0.0 | 0.0 | 0.00 | 0.10 | 0.01 | 96 | 1025.3 |
| 20260505013003 | 49 | 0 | 0.0 | 0.0 | 0.00 | 0.10 | 0.01 | 95 | 1025.5 |
| 20260505012503 | 50 | 0 | 0.0 | 0.0 | 0.00 | 0.10 | 0.01 | 95 | 1025.5 |
| 20260505012003 | 50 | 0 | 0.0 | 0.0 | 0.00 | 0.10 | 0.01 | 95 | 1025.4 |
| 20260505011503 | 50 | 290 | 0.0 | 1.0 | 0.01 | 0.10 | 0.01 | 95 | 1025.5 |
| 20260505011003 | 50 | 299 | 0.0 | 1.0 | 0.01 | 0.10 | 0.01 | 95 | 1025.7 |
| 20260505010713 | 50 | 314 | 0.0 | 1.0 | 0.01 | 0.10 | 0.01 | 95 | 1025.7 |
| 20260505010003 | 50 | 57 | 0.0 | 2.0 | 0.01 | 0.10 | 0.01 | 94 | 1025.6 |
| 20260505005503 | 50 | 58 | 0.0 | 2.0 | 0.01 | 0.10 | 0.01 | 94 | 1025.9 |
| 20260505005004 | 50 | 63 | 0.0 | 2.0 | 0.01 | 0.10 | 0.01 | 95 | 1026.0 |
| 20260505004713 | 50 | 63 | 0.0 | 2.0 | 0.01 | 0.10 | 0.01 | 94 | 1025.9 |
| 20260505004003 | 50 | 63 | 0.0 | 2.0 | 0.01 | 0.10 | 0.01 | 94 | 1026.0 |
| 20260505003503 | 50 | 65 | 0.0 | 1.0 | 0.01 | 0.10 | 0.01 | 93 | 1026.2 |
| 20260505003003 | 50 | 0 | 0.0 | 0.0 | 0.01 | 0.10 | 0.01 | 94 | 1026.5 |
| 20260505002503 | 50 | 62 | 0.0 | 1.0 | 0.01 | 0.10 | 0.01 | 94 | 1026.6 |
| 20260505002003 | 50 | 62 | 0.0 | 1.0 | 0.01 | 0.10 | 0.01 | 94 | 1026.9 |
| 20260505001503 | 50 | 43 | 0.0 | 1.0 | 0.00 | 0.09 | 0.00 | 94 | 1026.8 |
| 20260505001003 | 50 | 60 | 0.0 | 3.0 | 0.00 | 0.09 | 0.00 | 94 | 1027.1 |
| 20260505000503 | 50 | 60 | 1.0 | 3.0 | 0.00 | 0.09 | 0.00 | 94 | 1027.0 |
| 20260505000003 | 50 | 59 | 1.0 | 2.0 | 0.00 | 0.09 | 0.00 | 94 | 1027.2 |
| 20260504235503 | 50 | 57 | 0.0 | 2.0 | 0.00 | 0.09 | 0.00 | 93 | 1027.4 |
| 20260504235003 | 50 | 49 | 0.0 | 1.0 | 0.00 | 0.09 | 0.00 | 94 | 1027.4 |
| 20260504234503 | 50 | 49 | 0.0 | 1.0 | 0.00 | 0.09 | 0.00 | 94 | 1027.7 |
| 20260504234003 | 50 | 301 | 0.0 | 1.0 | 0.00 | 0.09 | 0.00 | 95 | 1027.8 |
| 20260504233713 | 50 | 301 | 0.0 | 1.0 | 0.00 | 0.09 | 0.00 | 95 | 1027.6 |
| 20260504233214 | 50 | 296 | 0.0 | 1.0 | 0.00 | 0.09 | 0.00 | 95 | 1027.9 |
| 20260504232503 | 50 | 303 | 0.0 | 1.0 | 0.00 | 0.09 | 0.00 | 94 | 1027.4 |
| 20260504232003 | 50 | 51 | 0.0 | 1.0 | 0.00 | 0.09 | 0.00 | 95 | 1027.8 |
| 20260504231503 | 50 | 335 | 0.0 | 1.0 | 0.00 | 0.09 | 0.00 | 94 | 1027.8 |
| 20260504231003 | 50 | 300 | 0.0 | 2.0 | 0.00 | 0.09 | 0.00 | 95 | 1027.8 |
| 20260504230503 | 50 | 299 | 0.0 | 2.0 | 0.00 | 0.09 | 0.00 | 94 | 1027.8 |
| 20260504230003 | 50 | 0 | 0.0 | 0.0 | 0.00 | 0.09 | 0.00 | 94 | 1028.0 |
| 20260504225503 | 50 | 308 | 0.0 | 1.0 | 0.00 | 0.09 | 0.00 | 94 | 1028.2 |
| 20260504225214 | 50 | 30 | 0.0 | 1.0 | 0.00 | 0.09 | 0.00 | 94 | 1028.1 |
| 20260504224503 | 50 | 73 | 0.0 | 1.0 | 0.00 | 0.09 | 0.00 | 92 | 1028.0 |
| 20260504224003 | 50 | 59 | 0.0 | 1.0 | 0.00 | 0.09 | 0.00 | 92 | 1028.1 |
| 20260504223713 | 50 | 32 | 0.0 | 1.0 | 0.00 | 0.09 | 0.00 | 92 | 1028.1 |
| 20260504223214 | 50 | 35 | 0.0 | 1.0 | 0.00 | 0.09 | 0.00 | 93 | 1028.2 |
| 20260504222503 | 50 | 66 | 0.0 | 2.0 | 0.00 | 0.09 | 0.00 | 93 | 1028.3 |
| 20260504222003 | 50 | 67 | 1.0 | 3.0 | 0.00 | 0.09 | 0.00 | 92 | 1028.2 |
| 20260504221503 | 50 | 64 | 0.0 | 3.0 | 0.00 | 0.09 | 0.00 | 92 | 1028.3 |
| 20260504221003 | 50 | 58 | 0.0 | 1.0 | 0.00 | 0.09 | 0.00 | 92 | 1028.1 |
| 20260504220503 | 50 | 98 | 0.0 | 1.0 | 0.00 | 0.09 | 0.00 | 92 | 1028.4 |
| 20260504220003 | 50 | 69 | 0.0 | 1.0 | 0.00 | 0.09 | 0.00 | 92 | 1028.4 |
| 20260504215503 | 50 | 54 | 0.0 | 3.0 | 0.00 | 0.09 | 0.09 | 91 | 1028.4 |
| 20260504215003 | 50 | 63 | 1.0 | 3.0 | 0.00 | 0.09 | 0.09 | 91 | 1028.4 |
| 20260504214503 | 50 | 67 | 1.0 | 3.0 | 0.00 | 0.09 | 0.09 | 90 | 1028.6 |
| 20260504214003 | 50 | 61 | 1.0 | 3.0 | 0.01 | 0.09 | 0.09 | 91 | 1028.9 |
| 20260504213503 | 50 | 57 | 1.0 | 2.0 | 0.01 | 0.09 | 0.09 | 92 | 1028.9 |
| 20260504213003 | 50 | 66 | 1.0 | 3.0 | 0.01 | 0.09 | 0.09 | 91 | 1028.8 |
| 20260504212503 | 50 | 69 | 1.0 | 3.0 | 0.01 | 0.09 | 0.09 | 93 | 1028.9 |
| 20260504212003 | 50 | 69 | 1.0 | 3.0 | 0.01 | 0.09 | 0.09 | 93 | 1028.8 |
| 20260504211503 | 50 | 66 | 1.0 | 3.0 | 0.01 | 0.09 | 0.09 | 92 | 1029.0 |
| 20260504211003 | 50 | 62 | 1.0 | 2.0 | 0.01 | 0.09 | 0.09 | 92 | 1029.0 |
| 20260504210503 | 50 | 66 | 1.0 | 2.0 | 0.01 | 0.09 | 0.09 | 91 | 1028.8 |
| 20260504210003 | 50 | 67 | 1.0 | 2.0 | 0.01 | 0.09 | 0.09 | 92 | 1029.1 |
| 20260504205503 | 50 | 66 | 1.0 | 4.0 | 0.01 | 0.09 | 0.09 | 92 | 1029.1 |
| 20260504205213 | 50 | 66 | 1.0 | 4.0 | 0.02 | 0.09 | 0.09 | 92 | 1029.0 |
| 20260504204503 | 50 | 65 | 1.0 | 2.0 | 0.02 | 0.09 | 0.09 | 92 | 1029.1 |
| 20260504204003 | 50 | 66 | 0.0 | 1.0 | 0.01 | 0.08 | 0.08 | 92 | 1029.2 |
| 20260504203714 | 50 | 44 | 0.0 | 2.0 | 0.02 | 0.08 | 0.08 | 92 | 1029.2 |
| 20260504203003 | 50 | 43 | 0.0 | 2.0 | 0.02 | 0.08 | 0.08 | 93 | 1029.2 |
| 20260504202503 | 50 | 0 | 0.0 | 0.0 | 0.02 | 0.08 | 0.08 | 93 | 1029.3 |
| 20260504202003 | 50 | 275 | 0.0 | 1.0 | 0.03 | 0.08 | 0.08 | 92 | 1029.3 |
| 20260504201503 | 50 | 285 | 0.0 | 2.0 | 0.03 | 0.08 | 0.08 | 92 | 1029.2 |
| 20260504201003 | 50 | 298 | 0.0 | 2.0 | 0.03 | 0.08 | 0.08 | 91 | 1029.4 |
| 20260504200714 | 50 | 298 | 0.0 | 2.0 | 0.03 | 0.08 | 0.08 | 90 | 1029.4 |
| 20260504200003 | 50 | 308 | 0.0 | 1.0 | 0.03 | 0.08 | 0.08 | 90 | 1029.0 |
| 20260504195503 | 51 | 309 | 0.0 | 1.0 | 0.04 | 0.08 | 0.08 | 91 | 1028.8 |
| 20260504195003 | 50 | 0 | 0.0 | 0.0 | 0.03 | 0.07 | 0.07 | 90 | 1029.0 |
| 20260504194503 | 51 | 0 | 0.0 | 0.0 | 0.03 | 0.07 | 0.07 | 91 | 1029.0 |
| 20260504194212 | 51 | 0 | 0.0 | 0.0 | 0.03 | 0.07 | 0.07 | 90 | 1028.9 |
| 20260504193503 | 51 | 0 | 0.0 | 0.0 | 0.02 | 0.06 | 0.06 | 91 | 1029.0 |
| 20260504193004 | 51 | 0 | 0.0 | 0.0 | 0.02 | 0.06 | 0.06 | 91 | 1028.7 |
| 20260504192503 | 51 | 63 | 0.0 | 1.0 | 0.02 | 0.06 | 0.06 | 91 | 1028.8 |
| 20260504192003 | 51 | 326 | 0.0 | 2.0 | 0.01 | 0.05 | 0.05 | 90 | 1028.7 |
| 20260504191713 | 51 | 292 | 0.0 | 2.0 | 0.01 | 0.05 | 0.05 | 89 | 1028.7 |
| 20260504191003 | 51 | 302 | 0.0 | 2.0 | 0.01 | 0.05 | 0.05 | 87 | 1028.5 |
| 20260504190503 | 51 | 302 | 1.0 | 2.0 | 0.01 | 0.05 | 0.05 | 86 | 1028.8 |
| 20260504190212 | 51 | 304 | 1.0 | 3.0 | 0.01 | 0.05 | 0.05 | 87 | 1028.5 |
| 20260504185713 | 52 | 304 | 0.0 | 3.0 | 0.00 | 0.04 | 0.04 | 87 | 1028.3 |
| 20260504185003 | 51 | 288 | 0.0 | 2.0 | 0.00 | 0.04 | 0.04 | 87 | 1028.2 |
| 20260504184503 | 52 | 279 | 0.0 | 2.0 | 0.00 | 0.04 | 0.04 | 87 | 1028.5 |
| 20260504184003 | 52 | 272 | 0.0 | 2.0 | 0.00 | 0.04 | 0.04 | 87 | 1028.4 |
| 20260504183713 | 52 | 144 | 0.0 | 1.0 | 0.01 | 0.04 | 0.04 | 87 | 1028.1 |
| 20260504183003 | 52 | 41 | 0.0 | 2.0 | 0.01 | 0.04 | 0.04 | 87 | 1028.1 |
| 20260504182503 | 52 | 38 | 0.0 | 2.0 | 0.01 | 0.04 | 0.04 | 88 | 1028.2 |
| 20260504182003 | 52 | 65 | 0.0 | 3.0 | 0.01 | 0.04 | 0.04 | 89 | 1028.2 |
| 20260504181713 | 52 | 66 | 0.0 | 3.0 | 0.01 | 0.04 | 0.04 | 90 | 1028.2 |
| 20260504181003 | 53 | 70 | 0.0 | 1.0 | 0.01 | 0.04 | 0.04 | 90 | 1028.1 |
| 20260504180503 | 53 | 74 | 0.0 | 1.0 | 0.02 | 0.04 | 0.04 | 91 | 1028.0 |
| 20260504180003 | 53 | 0 | 0.0 | 0.0 | 0.02 | 0.04 | 0.04 | 91 | 1028.2 |
| 20260504175503 | 53 | 0 | 0.0 | 0.0 | 0.02 | 0.04 | 0.04 | 91 | 1028.0 |
| 20260504175003 | 53 | 72 | 0.0 | 2.0 | 0.02 | 0.04 | 0.04 | 90 | 1028.0 |
| 20260504174713 | 53 | 72 | 0.0 | 2.0 | 0.02 | 0.04 | 0.04 | 90 | 1028.2 |
| 20260504174003 | 53 | 341 | 0.0 | 1.0 | 0.02 | 0.04 | 0.04 | 89 | 1028.3 |
| 20260504173503 | 53 | 297 | 0.0 | 1.0 | 0.01 | 0.03 | 0.03 | 87 | 1028.1 |
| 20260504173003 | 53 | 290 | 0.0 | 1.0 | 0.01 | 0.03 | 0.03 | 88 | 1028.2 |
| 20260504172503 | 53 | 117 | 0.0 | 1.0 | 0.01 | 0.03 | 0.03 | 88 | 1028.1 |
| 20260504172003 | 53 | 87 | 0.0 | 2.0 | 0.01 | 0.03 | 0.03 | 88 | 1028.3 |
| 20260504171503 | 54 | 75 | 0.0 | 2.0 | 0.01 | 0.03 | 0.03 | 86 | 1028.1 |
| 20260504171003 | 54 | 37 | 0.0 | 2.0 | 0.01 | 0.03 | 0.03 | 86 | 1028.0 |
| 20260504170503 | 54 | 306 | 0.0 | 3.0 | 0.00 | 0.02 | 0.02 | 85 | 1027.9 |
| 20260504170213 | 54 | 301 | 0.0 | 3.0 | 0.00 | 0.02 | 0.02 | 85 | 1028.0 |
| 20260504160213 | 58 | 290 | 0.0 | 1.0 | 0.00 | 0.02 | 0.02 | 77 | 1026.6 |